Time;durP1;ratioP1;P1;durP2;ratioP2;P2;SDS_P1;SDS_P2;PMS_P1;PMS_P2;Temp;Humidity;BMP_temperature;BMP_pressure;BME280_temperature;BME280_humidity;BME280_pressure;Samples;Min_cycle;Max_cycle;Signal;HPM_P1;HPM_P2
2022/03/02 00:01:57;;;;;;;19.47;14.50;;;;;;;;;;6130702;23;20180;-85
2022/03/02 00:04:26;;;;;;;16.80;12.13;;;;;;;;;;6157446;23;20175;-86
2022/03/02 00:06:54;;;;;;;21.77;16.30;;;;;;;;;;6131189;23;20231;-85
2022/03/02 00:09:23;;;;;;;21.53;15.33;;;;;;;;;;6131711;23;20186;-85
2022/03/02 00:11:53;;;;;;;22.67;16.37;;;;;;;;;;6131125;23;20183;-86
2022/03/02 00:14:21;;;;;;;15.23;10.23;;;;;;;;;;6131647;23;20176;-86
2022/03/02 00:16:50;;;;;;;10.03;7.33;;;;;;;;;;6155947;23;20177;-85
2022/03/02 00:19:19;;;;;;;6.30;5.77;;;;;;;;;;6157158;23;20205;-85
2022/03/02 00:21:47;;;;;;;15.50;12.67;;;;;;;;;;6131383;23;20200;-86
2022/03/02 00:24:16;;;;;;;11.13;7.73;;;;;;;;;;6130995;23;20183;-86
2022/03/02 00:26:44;;;;;;;8.97;7.77;;;;;;;;;;6131001;23;20201;-86
2022/03/02 00:29:14;;;;;;;13.57;8.73;;;;;;;;;;6131441;23;20191;-86
2022/03/02 00:31:42;;;;;;;17.77;13.30;;;;;;;;;;6155512;23;20177;-86
2022/03/02 00:34:11;;;;;;;12.20;9.83;;;;;;;;;;6130805;23;20185;-86
2022/03/02 00:36:39;;;;;;;12.77;9.70;;;;;;;;;;6155092;23;20266;-86
2022/03/02 00:39:08;;;;;;;10.43;8.43;;;;;;;;;;6156102;23;20176;-86
2022/03/02 00:41:36;;;;;;;17.67;13.43;;;;;;;;;;6131050;23;20538;-86
2022/03/02 00:44:05;;;;;;;19.67;13.43;;;;;;;;;;6156643;23;20178;-85
2022/03/02 00:46:35;;;;;;;12.63;11.30;;;;;;;;;;6154927;23;20205;-85
2022/03/02 00:49:04;;;;;;;11.10;7.53;;;;;;;;;;6130834;23;20181;-86
2022/03/02 00:51:32;;;;;;;5.30;4.40;;;;;;;;;;6155853;23;20188;-85
2022/03/02 00:54:01;;;;;;;19.93;15.50;;;;;;;;;;6155932;23;20177;-85
2022/03/02 00:56:30;;;;;;;18.77;15.00;;;;;;;;;;6130691;23;20181;-85
2022/03/02 00:58:58;;;;;;;16.93;12.07;;;;;;;;;;6156840;23;20205;-85
2022/03/02 01:01:26;;;;;;;9.10;7.00;;;;;;;;;;6130492;23;20188;-86
2022/03/02 01:03:57;;;;;;;13.00;7.57;;;;;;;;;;6155442;23;20224;-86
2022/03/02 01:06:25;;;;;;;8.83;7.67;;;;;;;;;;6130861;23;20259;-85
2022/03/02 01:08:53;;;;;;;7.80;6.93;;;;;;;;;;6155548;23;20188;-85
2022/03/02 01:11:22;;;;;;;8.73;6.77;;;;;;;;;;6130383;23;20176;-85
2022/03/02 01:13:50;;;;;;;8.97;7.70;;;;;;;;;;6130930;23;20180;-86
2022/03/02 01:16:19;;;;;;;18.00;12.40;;;;;;;;;;6130607;23;20181;-86
2022/03/02 01:18:48;;;;;;;17.30;13.37;;;;;;;;;;6130948;23;20185;-85
2022/03/02 01:21:17;;;;;;;14.23;11.03;;;;;;;;;;6155561;23;20211;-86
2022/03/02 01:23:46;;;;;;;5.80;5.40;;;;;;;;;;6156587;23;20181;-86
2022/03/02 01:26:14;;;;;;;8.90;8.00;;;;;;;;;;6130248;23;20186;-86
2022/03/02 01:28:43;;;;;;;12.77;10.73;;;;;;;;;;6156449;23;20189;-86
2022/03/02 01:31:11;;;;;;;7.53;5.53;;;;;;;;;;6155133;23;20185;-85
2022/03/02 01:33:40;;;;;;;20.97;13.73;;;;;;;;;;6154815;23;20183;-86
2022/03/02 01:36:08;;;;;;;7.80;6.87;;;;;;;;;;6130318;23;20242;-86
2022/03/02 01:38:38;;;;;;;7.10;6.03;;;;;;;;;;6156094;23;20230;-86
2022/03/02 01:41:07;;;;;;;8.40;7.67;;;;;;;;;;6130444;23;20172;-86
2022/03/02 01:43:35;;;;;;;6.47;4.03;;;;;;;;;;6156539;23;20176;-86
2022/03/02 01:46:04;;;;;;;11.03;6.97;;;;;;;;;;6130707;23;20181;-86
2022/03/02 01:48:32;;;;;;;6.43;5.43;;;;;;;;;;6130630;23;20205;-86
2022/03/02 01:51:01;;;;;;;11.17;10.00;;;;;;;;;;6130833;23;20185;-86
2022/03/02 01:53:29;;;;;;;12.67;5.97;;;;;;;;;;6130442;23;20176;-86
2022/03/02 01:55:59;;;;;;;15.13;9.70;;;;;;;;;;6156329;23;20181;-85
2022/03/02 01:58:28;;;;;;;11.30;8.60;;;;;;;;;;6130197;23;20238;-85
2022/03/02 02:00:57;;;;;;;6.30;4.47;;;;;;;;;;6156466;23;20172;-86
2022/03/02 02:03:26;;;;;;;10.47;7.13;;;;;;;;;;6130694;23;20291;-85
2022/03/02 02:05:54;;;;;;;15.23;12.47;;;;;;;;;;6130517;23;20179;-86
2022/03/02 02:08:23;;;;;;;18.07;14.43;;;;;;;;;;6130572;23;20191;-86
2022/03/02 02:10:52;;;;;;;8.30;5.60;;;;;;;;;;6156137;23;20210;-86
2022/03/02 02:13:21;;;;;;;14.20;9.27;;;;;;;;;;6129986;23;20195;-86
2022/03/02 02:15:50;;;;;;;12.07;9.30;;;;;;;;;;6130295;23;20181;-85
2022/03/02 02:18:18;;;;;;;4.10;3.80;;;;;;;;;;6130643;23;20175;-85
2022/03/02 02:20:48;;;;;;;4.80;4.07;;;;;;;;;;6130437;23;20181;-86
2022/03/02 02:23:16;;;;;;;12.00;8.70;;;;;;;;;;6130024;23;20274;-85
2022/03/02 02:25:45;;;;;;;9.43;5.00;;;;;;;;;;6156258;23;20178;-86
2022/03/02 02:28:14;;;;;;;23.83;12.90;;;;;;;;;;6155924;23;20202;-86
2022/03/02 02:30:43;;;;;;;11.00;9.43;;;;;;;;;;6155974;23;20172;-86
2022/03/02 02:33:13;;;;;;;18.57;13.43;;;;;;;;;;6154621;23;20287;-86
2022/03/02 02:35:42;;;;;;;12.60;9.00;;;;;;;;;;6130033;23;20204;-86
2022/03/02 02:38:12;;;;;;;7.97;5.07;;;;;;;;;;6129775;23;20181;-86
2022/03/02 02:40:41;;;;;;;10.50;8.20;;;;;;;;;;6156205;23;20180;-86
2022/03/02 02:43:10;;;;;;;19.40;11.13;;;;;;;;;;6130286;23;20176;-86
2022/03/02 02:45:38;;;;;;;9.70;7.83;;;;;;;;;;6130188;23;20210;-86
2022/03/02 02:48:07;;;;;;;7.57;5.13;;;;;;;;;;6155730;23;20191;-85
2022/03/02 02:50:36;;;;;;;4.60;4.30;;;;;;;;;;6132277;23;20176;-86
2022/03/02 02:53:06;;;;;;;8.20;7.50;;;;;;;;;;6131882;23;20184;-85
2022/03/02 02:55:37;;;;;;;15.17;11.00;;;;;;;;;;6132065;23;20172;-86
2022/03/02 02:58:05;;;;;;;16.23;11.23;;;;;;;;;;6156476;23;20170;-85
2022/03/02 03:00:35;;;;;;;12.20;8.53;;;;;;;;;;6157494;23;20180;-85
2022/03/02 03:03:04;;;;;;;11.60;9.17;;;;;;;;;;6157864;23;20195;-85
2022/03/02 03:05:34;;;;;;;9.37;7.10;;;;;;;;;;6157621;23;20184;-86
2022/03/02 03:08:06;;;;;;;10.40;9.00;;;;;;;;;;6131926;23;20208;-86
2022/03/02 03:10:35;;;;;;;6.90;6.40;;;;;;;;;;6158081;23;20176;-85
2022/03/02 03:13:04;;;;;;;11.30;8.57;;;;;;;;;;6156059;23;20268;-86
2022/03/02 03:15:34;;;;;;;9.23;6.63;;;;;;;;;;6156473;23;20177;-85
2022/03/02 03:18:02;;;;;;;9.40;7.07;;;;;;;;;;6157764;23;20183;-86
2022/03/02 03:20:31;;;;;;;13.40;10.50;;;;;;;;;;6131594;23;20262;-85
2022/03/02 03:22:59;;;;;;;11.27;8.50;;;;;;;;;;6157458;23;20179;-85
2022/03/02 03:25:29;;;;;;;13.23;9.90;;;;;;;;;;6157665;23;20204;-86
2022/03/02 03:27:57;;;;;;;9.30;7.60;;;;;;;;;;6156164;23;20191;-86
2022/03/02 03:30:27;;;;;;;9.07;8.27;;;;;;;;;;6131688;23;20244;-85
2022/03/02 03:32:56;;;;;;;7.70;6.90;;;;;;;;;;6132006;23;20186;-85
2022/03/02 03:35:26;;;;;;;7.13;5.73;;;;;;;;;;6131193;23;20210;-85
2022/03/02 03:37:55;;;;;;;23.20;15.37;;;;;;;;;;6131540;23;20180;-86
2022/03/02 03:40:23;;;;;;;16.87;10.13;;;;;;;;;;6131444;23;20179;-86
2022/03/02 03:42:52;;;;;;;26.90;19.57;;;;;;;;;;6155753;23;20187;-85
2022/03/02 03:45:21;;;;;;;11.17;9.63;;;;;;;;;;6131587;23;20188;-86
2022/03/02 03:47:52;;;;;;;5.60;4.37;;;;;;;;;;6131688;23;20235;-86
2022/03/02 03:50:20;;;;;;;12.87;8.70;;;;;;;;;;6131859;23;20180;-85
2022/03/02 03:52:49;;;;;;;28.77;18.63;;;;;;;;;;6157479;23;20215;-86
2022/03/02 03:55:17;;;;;;;14.10;10.60;;;;;;;;;;6131084;23;20179;-86
2022/03/02 03:57:45;;;;;;;9.10;7.83;;;;;;;;;;6156980;23;20173;-86
2022/03/02 04:00:17;;;;;;;13.87;10.83;;;;;;;;;;6157027;23;20165;-86
2022/03/02 04:02:45;;;;;;;15.47;9.13;;;;;;;;;;6131543;23;20204;-85
2022/03/02 04:05:16;;;;;;;17.93;12.93;;;;;;;;;;6155800;23;20204;-86
2022/03/02 04:07:46;;;;;;;12.10;10.20;;;;;;;;;;6155764;23;20268;-86
2022/03/02 04:10:15;;;;;;;19.50;13.37;;;;;;;;;;6155660;23;20196;-85
2022/03/02 04:12:44;;;;;;;21.10;13.43;;;;;;;;;;6131397;23;20206;-86
2022/03/02 04:15:12;;;;;;;13.23;10.83;;;;;;;;;;6157429;23;20179;-85
2022/03/02 04:17:41;;;;;;;10.90;8.37;;;;;;;;;;6131603;23;20176;-85
2022/03/02 04:20:10;;;;;;;12.63;9.77;;;;;;;;;;6156865;23;20168;-86
2022/03/02 04:22:39;;;;;;;17.07;10.80;;;;;;;;;;6130844;23;20180;-86
2022/03/02 04:25:09;;;;;;;14.13;11.67;;;;;;;;;;6155801;23;20180;-86
2022/03/02 04:27:37;;;;;;;20.67;14.10;;;;;;;;;;6156192;23;20191;-85
2022/03/02 04:30:06;;;;;;;14.17;11.47;;;;;;;;;;6156696;23;20266;-85
2022/03/02 04:32:34;;;;;;;14.67;10.30;;;;;;;;;;6155321;23;20183;-86
2022/03/02 04:35:03;;;;;;;16.07;13.40;;;;;;;;;;6130836;23;20185;-85
2022/03/02 04:37:31;;;;;;;19.33;13.27;;;;;;;;;;6155024;23;20186;-86
2022/03/02 04:40:01;;;;;;;20.43;13.83;;;;;;;;;;6156894;23;20168;-86
2022/03/02 04:42:29;;;;;;;11.37;9.27;;;;;;;;;;6155285;23;20199;-86
2022/03/02 04:44:58;;;;;;;17.97;14.90;;;;;;;;;;6130807;23;20187;-86
2022/03/02 04:47:26;;;;;;;26.50;18.83;;;;;;;;;;6155922;23;20175;-85
2022/03/02 04:49:56;;;;;;;31.10;20.93;;;;;;;;;;6130716;23;20196;-85
2022/03/02 04:52:24;;;;;;;10.70;8.97;;;;;;;;;;6155934;23;20202;-85
2022/03/02 04:55:09;;;;;;;16.97;11.13;;;;;;;;;;6130997;23;20180;-85
2022/03/02 04:57:40;;;;;;;17.97;12.43;;;;;;;;;;6155309;23;20176;-85
2022/03/02 05:00:10;;;;;;;32.67;22.50;;;;;;;;;;6130782;23;20222;-85
2022/03/02 05:02:40;;;;;;;20.27;14.57;;;;;;;;;;6156692;23;20259;-85
2022/03/02 05:05:10;;;;;;;24.40;19.30;;;;;;;;;;6155560;23;20204;-85
2022/03/02 05:07:38;;;;;;;30.20;20.30;;;;;;;;;;6156780;23;20213;-85
2022/03/02 05:10:07;;;;;;;21.10;11.77;;;;;;;;;;6154984;23;20200;-85
2022/03/02 05:12:36;;;;;;;17.80;11.77;;;;;;;;;;6154867;23;20275;-85
2022/03/02 05:15:07;;;;;;;16.43;11.40;;;;;;;;;;6156323;23;20180;-85
2022/03/02 05:17:36;;;;;;;23.27;17.90;;;;;;;;;;6130312;23;20174;-85
2022/03/02 05:20:04;;;;;;;26.57;18.43;;;;;;;;;;6130423;23;20180;-85
2022/03/02 05:22:33;;;;;;;14.17;12.03;;;;;;;;;;6130648;23;20176;-85
2022/03/02 05:25:02;;;;;;;29.50;16.77;;;;;;;;;;6130141;23;20199;-85
2022/03/02 05:27:30;;;;;;;12.03;9.33;;;;;;;;;;6130179;23;20259;-85
2022/03/02 05:29:59;;;;;;;16.23;12.43;;;;;;;;;;6155960;23;20192;-86
2022/03/02 05:32:29;;;;;;;20.33;15.93;;;;;;;;;;6130661;23;20187;-85
2022/03/02 05:34:57;;;;;;;5.30;4.90;;;;;;;;;;6154663;23;20180;-85
2022/03/02 05:37:26;;;;;;;17.67;11.73;;;;;;;;;;6154571;23;20203;-86
2022/03/02 05:39:54;;;;;;;11.60;9.27;;;;;;;;;;6155892;23;20259;-86
2022/03/02 05:42:23;;;;;;;10.90;9.20;;;;;;;;;;6129891;23;20175;-85
2022/03/02 05:44:51;;;;;;;7.60;6.23;;;;;;;;;;6155815;23;20190;-86
2022/03/02 05:47:20;;;;;;;16.50;11.07;;;;;;;;;;6155956;23;20179;-85
2022/03/02 05:49:50;;;;;;;24.33;20.07;;;;;;;;;;6130040;23;20192;-86
2022/03/02 05:52:19;;;;;;;18.50;12.87;;;;;;;;;;6129997;23;20269;-81
2022/03/02 05:54:47;;;;;;;16.83;13.53;;;;;;;;;;6156237;23;20187;-85
2022/03/02 05:57:16;;;;;;;15.73;11.33;;;;;;;;;;6130265;23;20231;-85
2022/03/02 05:59:45;;;;;;;21.20;15.63;;;;;;;;;;6154797;23;20173;-85
2022/03/02 06:02:13;;;;;;;29.53;20.77;;;;;;;;;;6129522;23;20203;-85
2022/03/02 06:04:42;;;;;;;18.57;13.23;;;;;;;;;;6129703;23;20179;-85
2022/03/02 06:07:12;;;;;;;11.50;9.47;;;;;;;;;;6156193;23;20183;-84
2022/03/02 06:09:43;;;;;;;16.43;13.27;;;;;;;;;;6130140;23;20195;-85
2022/03/02 06:12:12;;;;;;;17.40;13.67;;;;;;;;;;6154852;23;20182;-85
2022/03/02 06:14:41;;;;;;;26.87;19.97;;;;;;;;;;6155853;23;20172;-85
2022/03/02 06:17:10;;;;;;;20.50;15.23;;;;;;;;;;6129594;23;20176;-85
2022/03/02 06:19:40;;;;;;;31.07;22.47;;;;;;;;;;6130248;23;20200;-85
2022/03/02 06:22:09;;;;;;;22.83;15.53;;;;;;;;;;6130340;23;20172;-85
2022/03/02 06:24:39;;;;;;;20.40;15.30;;;;;;;;;;6156812;23;20179;-85
2022/03/02 06:27:08;;;;;;;23.00;14.63;;;;;;;;;;6157950;23;20203;-85
2022/03/02 06:29:36;;;;;;;19.23;12.33;;;;;;;;;;6132056;23;20196;-85
2022/03/02 06:32:05;;;;;;;13.73;11.33;;;;;;;;;;6158058;23;20178;-85
2022/03/02 06:34:34;;;;;;;20.20;15.80;;;;;;;;;;6156769;23;20195;-85
2022/03/02 06:37:02;;;;;;;16.63;13.53;;;;;;;;;;6158121;23;20216;-85
2022/03/02 06:39:31;;;;;;;24.20;17.60;;;;;;;;;;6131671;23;20187;-85
2022/03/02 06:42:05;;;;;;;20.73;15.13;;;;;;;;;;6158069;23;20255;-86
2022/03/02 06:44:35;;;;;;;10.07;9.07;;;;;;;;;;6156799;23;20185;-85
2022/03/02 06:47:05;;;;;;;15.13;9.20;;;;;;;;;;6156555;23;20176;-85
2022/03/02 06:49:48;;;;;;;12.67;10.40;;;;;;;;;;6156888;23;20262;-80
2022/03/02 06:52:20;;;;;;;13.47;9.10;;;;;;;;;;6156806;23;20273;-85
2022/03/02 06:54:50;;;;;;;11.53;10.37;;;;;;;;;;6132326;23;20176;-86
2022/03/02 06:57:29;;;;;;;7.30;6.63;;;;;;;;;;6131727;23;20187;-86
2022/03/02 07:00:06;;;;;;;9.53;6.00;;;;;;;;;;6132257;23;20231;-86
2022/03/02 07:02:41;;;;;;;10.57;9.00;;;;;;;;;;6131882;23;20209;-86
2022/03/02 07:05:32;;;;;;;14.23;12.50;;;;;;;;;;6132152;23;20183;-86
2022/03/02 07:08:09;;;;;;;4.43;4.10;;;;;;;;;;6132142;23;20233;-86
2022/03/02 07:10:40;;;;;;;4.67;4.30;;;;;;;;;;6156609;23;20199;-87
2022/03/02 07:13:27;;;;;;;9.27;6.23;;;;;;;;;;6156792;23;20179;-86
2022/03/02 07:16:01;;;;;;;5.43;3.73;;;;;;;;;;6132088;23;20183;-86
2022/03/02 07:18:40;;;;;;;17.37;13.43;;;;;;;;;;6132272;23;20184;-87
2022/03/02 07:21:34;;;;;;;19.17;12.97;;;;;;;;;;6132261;23;20196;-87
2022/03/02 07:24:14;;;;;;;12.40;9.33;;;;;;;;;;6132519;23;20180;-86
2022/03/02 07:27:10;;;;;;;10.77;9.20;;;;;;;;;;6132258;23;20175;-87
2022/03/02 07:29:50;;;;;;;17.23;11.70;;;;;;;;;;6132100;23;20175;-87
2022/03/02 07:32:36;;;;;;;5.07;4.60;;;;;;;;;;6132178;23;20178;-87
2022/03/02 07:35:12;;;;;;;6.67;6.00;;;;;;;;;;6131575;23;20179;-87
2022/03/02 07:38:18;;;;;;;35.67;26.33;;;;;;;;;;6119106;23;20176;-87
2022/03/02 07:41:20;;;;;;;11.73;10.53;;;;;;;;;;6067537;23;20185;-87
2022/03/02 07:44:44;;;;;;;20.17;14.03;;;;;;;;;;6043656;23;20186;-87
2022/03/02 07:47:50;;;;;;;19.87;12.10;;;;;;;;;;5982603;24;20217;-88
2022/03/02 07:50:49;;;;;;;21.97;16.83;;;;;;;;;;6009734;23;20197;-88
2022/03/02 07:54:14;;;;;;;6.80;6.13;;;;;;;;;;6067893;23;20185;-88
2022/03/02 08:00:49;;;;;;;22.43;17.60;;;;;;;;;;6067782;23;20265;-87
2022/03/02 08:03:42;;;;;;;21.63;15.00;;;;;;;;;;6043472;23;20197;-88
2022/03/02 08:06:31;;;;;;;28.63;18.33;;;;;;;;;;6043254;23;20182;-88
2022/03/02 08:09:23;;;;;;;7.43;6.53;;;;;;;;;;6067118;23;20183;-88
2022/03/02 08:15:37;;;;;;;15.83;11.60;;;;;;;;;;6120039;23;20186;-88
2022/03/02 08:18:44;;;;;;;11.57;8.33;;;;;;;;;;6130045;23;20181;-88
2022/03/02 08:21:24;;;;;;;20.03;13.47;;;;;;;;;;6130964;23;20181;-88
2022/03/02 08:24:27;;;;;;;22.17;14.33;;;;;;;;;;6131011;23;20187;-87
2022/03/02 08:27:02;;;;;;;24.07;14.17;;;;;;;;;;6131686;23;20181;-87
2022/03/02 08:32:50;;;;;;;22.23;14.57;;;;;;;;;;6087045;23;20204;-88
2022/03/02 08:42:44;;;;;;;15.80;12.00;;;;;;;;;;6109550;23;20179;-88
2022/03/02 08:45:36;;;;;;;21.67;15.43;;;;;;;;;;6155811;23;20184;-87
2022/03/02 08:51:36;;;;;;;21.57;10.13;;;;;;;;;;6130503;23;20211;-88
2022/03/02 08:57:21;;;;;;;26.57;19.10;;;;;;;;;;6155505;23;20181;-87
2022/03/02 09:00:33;;;;;;;11.93;10.70;;;;;;;;;;6120794;23;20186;-88
2022/03/02 09:03:14;;;;;;;13.17;9.97;;;;;;;;;;6127838;23;20203;-88
2022/03/02 09:09:06;;;;;;;14.87;12.87;;;;;;;;;;6155452;23;20183;-88
2022/03/02 09:12:13;;;;;;;15.73;11.00;;;;;;;;;;6155437;23;20188;-87
2022/03/02 09:18:21;;;;;;;4.77;3.67;;;;;;;;;;6099609;23;20263;-87
2022/03/02 09:24:28;;;;;;;;;;;;;;;;;;;;;
2022/03/02 09:27:20;;;;;;;11.93;7.90;;;;;;;;;;6155405;23;20181;-87
2022/03/02 09:30:40;;;;;;;16.07;10.37;;;;;;;;;;6130637;23;20178;-88
2022/03/02 09:33:26;;;;;;;15.30;9.23;;;;;;;;;;6129961;23;20179;-87
2022/03/02 09:43:50;;;;;;;12.13;8.33;;;;;;;;;;6041426;23;20261;-88
2022/03/02 09:47:29;;;;;;;17.53;11.47;;;;;;;;;;6102314;23;20179;-88
2022/03/02 09:51:03;;;;;;;13.43;7.47;;;;;;;;;;6130400;23;20182;-88
2022/03/02 09:54:27;;;;;;;18.27;14.40;;;;;;;;;;6106428;23;20182;-88
2022/03/02 10:00:53;;;;;;;10.67;7.77;;;;;;;;;;6011415;23;20181;-87
2022/03/02 10:05:08;;;;;;;16.87;10.00;;;;;;;;;;6135293;23;20186;-88
2022/03/02 10:08:30;;;;;;;7.80;6.07;;;;;;;;;;6155056;23;20237;-88
2022/03/02 10:14:57;;;;;;;;;;;;;;;;;;;;;
2022/03/02 10:18:54;;;;;;;;;;;;;;;;;;;;;
2022/03/02 10:22:06;;;;;;;15.67;12.43;;;;;;;;;;6122452;23;20235;-89
2022/03/02 10:25:03;;;;;;;19.30;15.37;;;;;;;;;;6129731;23;20186;-89
2022/03/02 10:54:25;;;;;;;;;;;;;;;;;;;;;
2022/03/02 11:01:25;;;;;;;8.57;7.17;;;;;;;;;;5902215;24;20196;-88
2022/03/02 11:08:04;;;;;;;8.23;5.57;;;;;;;;;;5948356;24;20208;-89
2022/03/02 11:10:42;;;;;;;13.97;9.73;;;;;;;;;;5957193;24;20194;-90
2022/03/02 11:37:18;;;;;;;22.00;10.53;;;;;;;;;;5778333;24;20186;-88
2022/03/02 11:40:23;;;;;;;8.53;7.40;;;;;;;;;;5897604;24;20229;-89
2022/03/02 13:31:34;;;;;;;14.30;9.97;;;;;;;;;;5876236;24;20186;-89
2022/03/02 13:49:23;;;;;;;9.77;7.77;;;;;;;;;;5800637;24;20179;-89
2022/03/02 14:17:17;;;;;;;15.47;10.50;;;;;;;;;;5898515;24;20214;-90
2022/03/02 14:21:10;;;;;;;11.23;8.57;;;;;;;;;;5883989;24;20261;-87
2022/03/02 14:23:49;;;;;;;12.87;8.63;;;;;;;;;;5902868;24;20177;-87
2022/03/02 14:26:31;;;;;;;19.70;12.90;;;;;;;;;;5925281;24;20181;-87
2022/03/02 14:29:24;;;;;;;13.73;10.20;;;;;;;;;;5887619;24;20188;-87
2022/03/02 14:32:05;;;;;;;22.07;12.70;;;;;;;;;;5957858;24;20223;-87
2022/03/02 14:34:55;;;;;;;14.33;10.67;;;;;;;;;;5957714;24;20220;-86
2022/03/02 14:37:58;;;;;;;5.20;4.77;;;;;;;;;;5958366;24;20206;-87
2022/03/02 14:40:49;;;;;;;6.03;5.50;;;;;;;;;;5957840;24;20218;-86
2022/03/02 14:43:30;;;;;;;11.30;9.07;;;;;;;;;;5956938;24;20592;-86
2022/03/02 14:46:07;;;;;;;16.40;10.27;;;;;;;;;;5959357;24;20197;-87
2022/03/02 14:49:06;;;;;;;16.47;11.67;;;;;;;;;;5959556;24;20188;-87
2022/03/02 14:55:31;;;;;;;12.07;8.63;;;;;;;;;;5958515;24;20182;-88
2022/03/02 14:58:30;;;;;;;;;;;;;;;;;;;;;
2022/03/02 15:01:41;;;;;;;12.83;9.83;;;;;;;;;;6012480;23;20188;-87
2022/03/02 15:04:24;;;;;;;14.97;12.27;;;;;;;;;;6039327;23;20174;-86
2022/03/02 15:10:22;;;;;;;7.07;6.43;;;;;;;;;;6039271;23;20205;-87
2022/03/02 15:16:05;;;;;;;15.50;10.00;;;;;;;;;;6015517;23;20273;-87
2022/03/02 15:19:03;;;;;;;21.17;15.03;;;;;;;;;;6037050;23;20181;-86
2022/03/02 15:21:53;;;;;;;13.10;8.77;;;;;;;;;;6038599;23;20188;-85
2022/03/02 15:24:27;;;;;;;9.80;6.27;;;;;;;;;;6015914;23;20218;-84
2022/03/02 15:27:19;;;;;;;17.13;11.57;;;;;;;;;;6038885;23;20170;-85
2022/03/02 15:29:54;;;;;;;10.13;7.73;;;;;;;;;;6015658;23;20229;-84
2022/03/02 15:32:32;;;;;;;14.07;9.07;;;;;;;;;;6039104;23;20188;-83
2022/03/02 15:35:08;;;;;;;10.60;6.33;;;;;;;;;;6039150;23;20178;-84
2022/03/02 15:37:43;;;;;;;15.13;9.50;;;;;;;;;;6015285;23;20206;-85
2022/03/02 15:40:14;;;;;;;12.07;7.97;;;;;;;;;;6015259;23;20182;-84
2022/03/02 15:42:47;;;;;;;10.43;7.57;;;;;;;;;;6015238;23;20178;-85
2022/03/02 15:45:35;;;;;;;11.47;9.27;;;;;;;;;;6015491;23;20206;-84
2022/03/02 15:48:05;;;;;;;14.93;11.17;;;;;;;;;;6015451;23;20189;-82
2022/03/02 15:50:41;;;;;;;7.90;5.63;;;;;;;;;;6014135;23;20246;-83
2022/03/02 15:53:14;;;;;;;15.03;9.30;;;;;;;;;;6014757;23;20285;-83
2022/03/02 15:55:44;;;;;;;15.80;9.87;;;;;;;;;;6014778;23;20210;-82
2022/03/02 15:58:18;;;;;;;10.87;7.93;;;;;;;;;;6015190;23;20186;-84
2022/03/02 16:00:50;;;;;;;12.60;8.17;;;;;;;;;;6015034;23;20193;-83
2022/03/02 16:03:21;;;;;;;12.40;7.27;;;;;;;;;;6015083;23;20198;-83
2022/03/02 16:05:52;;;;;;;12.97;8.23;;;;;;;;;;6015168;23;20266;-84
2022/03/02 16:08:22;;;;;;;10.23;6.63;;;;;;;;;;6014898;23;20605;-83
2022/03/02 16:10:52;;;;;;;7.30;5.17;;;;;;;;;;6015295;23;20183;-83
2022/03/02 16:13:23;;;;;;;15.20;11.87;;;;;;;;;;6015097;23;20202;-84
2022/03/02 16:15:54;;;;;;;11.97;7.83;;;;;;;;;;6039219;23;20203;-84
2022/03/02 16:18:24;;;;;;;13.03;10.07;;;;;;;;;;6015207;23;20182;-85
2022/03/02 16:23:45;;;;;;;9.10;5.83;;;;;;;;;;6009667;23;20174;-87
2022/03/02 16:26:32;;;;;;;8.37;6.13;;;;;;;;;;6014404;23;20219;-86
2022/03/02 16:29:02;;;;;;;4.33;3.97;;;;;;;;;;6014734;23;20182;-85
2022/03/02 16:31:39;;;;;;;5.37;4.73;;;;;;;;;;6038285;23;20232;-86
2022/03/02 16:34:08;;;;;;;17.43;12.80;;;;;;;;;;6014528;23;20241;-85
2022/03/02 16:36:46;;;;;;;11.13;9.37;;;;;;;;;;6014426;23;20178;-86
2022/03/02 16:39:24;;;;;;;9.77;7.40;;;;;;;;;;6014014;23;20246;-86
2022/03/02 16:41:52;;;;;;;6.10;5.33;;;;;;;;;;6014529;23;20189;-86
2022/03/02 16:44:23;;;;;;;7.07;4.37;;;;;;;;;;6014210;23;20529;-86
2022/03/02 16:46:53;;;;;;;7.03;5.73;;;;;;;;;;6014317;23;20193;-86
2022/03/02 16:49:22;;;;;;;7.53;6.23;;;;;;;;;;6014209;23;20180;-86
2022/03/02 16:51:50;;;;;;;12.10;10.23;;;;;;;;;;6011656;23;20188;-84
2022/03/02 16:54:19;;;;;;;11.20;7.70;;;;;;;;;;6012157;23;20239;-86
2022/03/02 16:56:50;;;;;;;13.50;8.93;;;;;;;;;;6013524;23;20254;-86
2022/03/02 16:59:19;;;;;;;7.93;6.43;;;;;;;;;;6013497;23;20187;-87
2022/03/02 17:01:47;;;;;;;13.87;9.17;;;;;;;;;;6013830;23;20185;-86
2022/03/02 17:04:17;;;;;;;15.33;9.07;;;;;;;;;;6014367;23;20188;-87
2022/03/02 17:06:49;;;;;;;8.10;5.23;;;;;;;;;;6015132;23;20184;-86
2022/03/02 17:09:18;;;;;;;3.13;2.03;;;;;;;;;;6014466;23;20268;-86
2022/03/02 17:11:47;;;;;;;13.87;11.20;;;;;;;;;;6038262;23;20191;-86
2022/03/02 17:14:17;;;;;;;7.17;5.07;;;;;;;;;;6014585;23;20206;-86
2022/03/02 17:16:45;;;;;;;9.80;6.50;;;;;;;;;;6014799;23;20271;-86
2022/03/02 17:19:18;;;;;;;4.50;3.47;;;;;;;;;;6038155;23;20216;-85
2022/03/02 17:21:47;;;;;;;3.57;3.23;;;;;;;;;;6038103;23;20181;-87
2022/03/02 17:24:16;;;;;;;14.33;10.97;;;;;;;;;;6038447;23;20274;-86
2022/03/02 17:26:45;;;;;;;8.20;5.63;;;;;;;;;;6014952;23;20190;-86
2022/03/02 17:29:13;;;;;;;3.30;3.00;;;;;;;;;;6098569;23;20180;-87
2022/03/02 17:31:42;;;;;;;12.53;7.30;;;;;;;;;;6101633;23;20183;-87
2022/03/02 17:34:10;;;;;;;12.37;8.30;;;;;;;;;;6101473;23;20193;-87
2022/03/02 17:36:41;;;;;;;8.70;5.27;;;;;;;;;;6101673;23;20187;-87
2022/03/02 17:39:11;;;;;;;5.10;4.60;;;;;;;;;;6101569;23;20187;-86
2022/03/02 17:41:39;;;;;;;10.73;6.73;;;;;;;;;;6101168;23;20209;-87
2022/03/02 17:44:08;;;;;;;5.97;5.20;;;;;;;;;;6101147;23;20260;-86
2022/03/02 17:46:37;;;;;;;5.73;4.40;;;;;;;;;;6127576;23;20189;-87
2022/03/02 17:49:06;;;;;;;10.00;6.87;;;;;;;;;;6127004;23;20184;-87
2022/03/02 17:51:34;;;;;;;6.40;5.70;;;;;;;;;;6127839;23;20179;-87
2022/03/02 17:54:06;;;;;;;10.57;7.33;;;;;;;;;;6125824;23;20189;-86
2022/03/02 17:56:34;;;;;;;14.00;8.70;;;;;;;;;;6127397;23;20229;-86
2022/03/02 17:59:04;;;;;;;15.60;7.90;;;;;;;;;;6127172;23;20185;-87
2022/03/02 18:01:32;;;;;;;11.27;7.10;;;;;;;;;;6127514;23;20173;-86
2022/03/02 18:04:01;;;;;;;4.77;4.33;;;;;;;;;;6101439;23;20233;-86
2022/03/02 18:06:30;;;;;;;4.57;4.20;;;;;;;;;;6101884;23;20188;-87
2022/03/02 18:08:59;;;;;;;3.93;3.67;;;;;;;;;;6127000;23;20177;-86
2022/03/02 18:11:30;;;;;;;9.17;5.80;;;;;;;;;;6101207;23;20172;-86
2022/03/02 18:14:00;;;;;;;15.00;11.23;;;;;;;;;;6101064;23;20244;-87
2022/03/02 18:16:28;;;;;;;3.53;3.13;;;;;;;;;;6127492;23;20176;-86
2022/03/02 18:18:57;;;;;;;4.37;4.07;;;;;;;;;;6127167;23;20237;-86
2022/03/02 18:21:27;;;;;;;6.87;5.53;;;;;;;;;;6128984;23;20176;-86
2022/03/02 18:23:56;;;;;;;8.50;7.10;;;;;;;;;;6103294;23;20181;-86
2022/03/02 18:26:28;;;;;;;6.50;5.17;;;;;;;;;;6128512;23;20196;-87
2022/03/02 18:28:58;;;;;;;4.37;3.97;;;;;;;;;;6129025;23;20184;-86
2022/03/02 18:31:27;;;;;;;4.43;4.00;;;;;;;;;;6128760;23;20170;-87
2022/03/02 18:33:56;;;;;;;4.47;4.03;;;;;;;;;;6103372;23;20204;-86
2022/03/02 18:36:25;;;;;;;9.97;7.37;;;;;;;;;;6103181;23;20189;-86
2022/03/02 18:38:55;;;;;;;6.07;4.90;;;;;;;;;;6103167;23;20181;-86
2022/03/02 18:41:23;;;;;;;5.13;2.43;;;;;;;;;;6103214;23;20172;-86
2022/03/02 18:43:53;;;;;;;7.43;4.20;;;;;;;;;;6128584;23;20173;-86
2022/03/02 18:46:23;;;;;;;1.70;1.67;;;;;;;;;;6127577;23;20193;-86
2022/03/02 18:48:53;;;;;;;4.70;3.80;;;;;;;;;;6102860;23;20186;-86
2022/03/02 18:51:21;;;;;;;3.87;3.57;;;;;;;;;;6129036;23;20279;-86
2022/03/02 18:53:53;;;;;;;6.30;5.30;;;;;;;;;;6103287;23;20181;-86
2022/03/02 18:56:21;;;;;;;3.03;2.83;;;;;;;;;;6128413;23;20190;-86
2022/03/02 18:58:49;;;;;;;6.77;4.70;;;;;;;;;;6128504;23;20188;-87
2022/03/02 19:01:18;;;;;;;4.47;3.83;;;;;;;;;;6127296;23;20181;-86
2022/03/02 19:03:49;;;;;;;4.37;2.23;;;;;;;;;;6102570;23;20197;-86
2022/03/02 19:06:17;;;;;;;9.10;5.23;;;;;;;;;;6127242;23;20257;-86
2022/03/02 19:08:46;;;;;;;1.00;1.00;;;;;;;;;;6102961;23;20176;-86
2022/03/02 19:11:14;;;;;;;5.73;4.33;;;;;;;;;;6127824;23;20185;-86
2022/03/02 19:13:43;;;;;;;4.03;3.80;;;;;;;;;;6102525;23;20177;-86
2022/03/02 19:16:11;;;;;;;2.43;2.33;;;;;;;;;;6127703;23;20252;-86
2022/03/02 19:18:42;;;;;;;6.43;5.60;;;;;;;;;;6127033;23;20178;-87
2022/03/02 19:21:18;;;;;;;6.10;5.10;;;;;;;;;;6102780;23;20183;-86
2022/03/02 19:23:48;;;;;;;2.63;2.43;;;;;;;;;;6102843;23;20180;-86
2022/03/02 19:26:17;;;;;;;13.67;9.37;;;;;;;;;;6127114;23;20172;-86
2022/03/02 19:28:46;;;;;;;10.27;4.73;;;;;;;;;;6127346;23;20184;-86
2022/03/02 19:31:15;;;;;;;12.30;8.00;;;;;;;;;;6126410;23;20177;-86
2022/03/02 19:33:45;;;;;;;10.37;6.13;;;;;;;;;;6128468;23;20172;-86
2022/03/02 19:36:14;;;;;;;5.77;5.33;;;;;;;;;;6101991;23;20203;-87
2022/03/02 19:41:30;;;;;;;6.27;4.00;;;;;;;;;;6102526;23;20176;-86
2022/03/02 19:43:58;;;;;;;9.30;6.63;;;;;;;;;;6128202;23;20213;-86
2022/03/02 19:46:27;;;;;;;8.17;7.43;;;;;;;;;;6102457;23;20183;-86
2022/03/02 19:48:55;;;;;;;5.47;5.03;;;;;;;;;;6102892;23;20207;-86
2022/03/02 19:51:24;;;;;;;7.70;5.30;;;;;;;;;;6128333;23;20173;-86
2022/03/02 19:53:54;;;;;;;13.67;10.63;;;;;;;;;;6102324;23;20181;-86